YBAD weather

Baradine Airport
New South Wales, Australia

Public forecast

Using degrees Celsius for public forecast. Weather courtesy of forecast.io.

METAR (pilot weather report)

Closest report is Coonabarabran Airport, 24.4 nm (45.2 km) SSE. Retrieved 2019/06/20 12:00 UTC (33 minutes ago):

YCBB 201200Z AUTO 22011KT 9999 // NCD 04/M01 Q1023

TAF (pilot weather forecast)

Closest forecast is Dubbo City Regional Airport, 80.2 nm (148.6 km) SSW. Retrieved 2019/06/20 12:36 UTC (0 seconds ago):

TAF YSDU 201110Z 2012/2106 20006KT CAVOK BECMG 2016/2018 21006KT 9999 BKN016 BECMG 2022/2024 20012KT 9999 FEW030 PROB30 2014/2022 0500 FG BKN002